Time,TemperatureF,DewpointF,PressureIn,WindDirection,WindDirectionDegrees,WindSpeedMPH,WindSpeedGustMPH,Humidity,HourlyPrecipIn,Conditions,Clouds,dailyrainin,SoftwareType,DateUTC
2013-01-02 00:13:00,48.8,46.3,29.95,West,260,0.0,1.3,91,0.07,,-RA,0.02,VWS V14.01,2013-01-02 05:13:00,
2013-01-02 00:29:00,48.9,46.4,29.94,West,260,0.0,0.0,91,0.07,,-RA,0.03,VWS V14.01,2013-01-02 05:29:00,
2013-01-02 00:44:00,48.9,46.4,29.95,West,260,0.0,0.0,91,0.07,,-RA,0.04,VWS V14.01,2013-01-02 05:44:00,
2013-01-02 00:59:00,48.9,46.4,29.94,West,260,0.0,1.3,91,0.07,,-RA,0.06,VWS V14.01,2013-01-02 05:59:00,
2013-01-02 01:14:00,49.0,46.5,29.93,West,260,1.3,3.9,91,0.07,,RA,0.07,VWS V14.01,2013-01-02 06:14:00,
2013-01-02 01:28:00,49.0,46.5,29.94,West,260,0.0,1.3,91,0.05,,-RA,0.08,VWS V14.01,2013-01-02 06:28:00,
2013-01-02 01:43:00,48.9,46.4,29.92,West,260,0.0,1.3,91,0.05,,-RA,0.09,VWS V14.01,2013-01-02 06:43:00,
2013-01-02 01:59:00,48.8,46.3,29.90,West,260,0.0,1.3,91,0.06,,-RA,0.10,VWS V14.01,2013-01-02 06:59:00,
2013-01-02 02:14:00,48.9,46.4,29.93,West,262,0.0,3.9,91,0.06,,-RA,0.11,VWS V14.01,2013-01-02 07:14:00,
2013-01-02 02:29:00,49.0,46.5,29.93,West,262,0.0,1.3,91,0.04,,-RA,0.11,VWS V14.01,2013-01-02 07:29:00,
2013-01-02 02:44:00,49.0,46.5,29.95,West,262,0.0,1.3,91,0.04,,-RA,0.12,VWS V14.01,2013-01-02 07:44:00,
2013-01-02 02:59:00,49.1,46.6,29.93,West,262,0.0,1.3,91,0.04,,-RA,0.13,VWS V14.01,2013-01-02 07:59:00,
2013-01-02 03:14:00,49.3,46.8,29.94,West,262,0.0,0.0,91,0.04,,-RA,0.14,VWS V14.01,2013-01-02 08:14:00,
2013-01-02 03:29:00,49.3,46.8,29.94,West,262,0.0,1.3,91,0.03,,,0.14,VWS V14.01,2013-01-02 08:29:00,
2013-01-02 03:44:00,49.1,46.6,29.93,West,262,1.3,1.3,91,0.04,,,0.15,VWS V14.01,2013-01-02 08:44:00,
2013-01-02 03:59:00,49.2,46.7,29.94,West,262,0.0,1.3,91,0.03,,,0.15,VWS V14.01,2013-01-02 08:59:00,
2013-01-02 04:14:00,49.2,46.7,29.94,West,262,0.0,0.0,91,0.02,,,0.15,VWS V14.01,2013-01-02 09:14:00,
2013-01-02 04:28:00,49.2,46.7,29.95,West,262,0.0,0.0,91,0.01,,,0.15,VWS V14.01,2013-01-02 09:28:00,
2013-01-02 04:44:00,49.1,46.6,29.94,West,262,0.0,0.0,91,0.01,,,0.15,VWS V14.01,2013-01-02 09:44:00,
2013-01-02 04:59:00,49.0,46.5,29.96,NNE,32,3.9,5.2,91,0.00,,,0.15,VWS V14.01,2013-01-02 09:59:00,
2013-01-02 05:14:00,48.7,46.2,29.97,NE,45,0.0,6.5,91,0.00,,,0.15,VWS V14.01,2013-01-02 10:14:00,
2013-01-02 05:29:00,48.3,45.5,29.96,NNE,26,2.6,5.2,90,0.00,,,0.15,VWS V14.01,2013-01-02 10:29:00,
2013-01-02 05:43:00,47.5,44.1,29.97,NW,325,2.6,9.1,88,0.00,,,0.15,VWS V14.01,2013-01-02 10:43:00,
2013-01-02 05:59:00,47.1,43.7,29.97,NNW,338,0.0,2.6,88,0.00,,,0.15,VWS V14.01,2013-01-02 10:59:00,
2013-01-02 06:14:00,46.9,43.5,29.97,NW,326,0.0,6.5,88,0.00,,OVC029,0.15,VWS V14.01,2013-01-02 11:14:00,
2013-01-02 06:28:00,46.9,43.5,29.98,WNW,299,1.3,5.2,88,0.00,,OVC029,0.15,VWS V14.01,2013-01-02 11:28:00,
2013-01-02 06:44:00,46.8,43.4,29.98,North,355,0.0,9.1,88,0.00,,OVC029,0.15,VWS V14.01,2013-01-02 11:44:00,
2013-01-02 06:59:00,46.5,43.1,29.98,North,355,0.0,2.6,88,0.00,,OVC029,0.15,VWS V14.01,2013-01-02 11:59:00,
2013-01-02 07:14:00,46.2,42.8,29.99,North,355,0.0,1.3,88,0.00,,OVC050,0.15,VWS V14.01,2013-01-02 12:14:00,
2013-01-02 07:28:00,45.8,42.5,30.00,North,355,0.0,1.3,88,0.00,,OVC050,0.15,VWS V14.01,2013-01-02 12:28:00,
2013-01-02 07:44:00,45.5,42.5,29.99,North,355,0.0,0.0,89,0.00,,OVC050,0.15,VWS V14.01,2013-01-02 12:44:00,
2013-01-02 07:59:00,45.4,42.3,30.00,North,355,0.0,0.0,89,0.00,,OVC050,0.15,VWS V14.01,2013-01-02 12:59:00,
2013-01-02 08:14:00,45.4,42.6,30.00,North,355,0.0,0.0,90,0.00,,BKN060,0.15,VWS V14.01,2013-01-02 13:14:00,
2013-01-02 08:29:00,45.2,42.5,30.01,North,355,0.0,1.3,90,0.00,,BKN060,0.15,VWS V14.01,2013-01-02 13:29:00,
2013-01-02 08:43:00,45.6,42.8,30.03,North,355,0.0,1.3,90,0.00,,BKN060,0.15,VWS V14.01,2013-01-02 13:43:00,
2013-01-02 08:59:00,46.0,43.2,30.04,NNW,345,1.3,3.9,90,0.00,,BKN060,0.15,VWS V14.01,2013-01-02 13:59:00,
2013-01-02 09:14:00,46.4,43.3,30.04,North,355,0.0,2.6,89,0.00,,CLR,0.15,VWS V14.01,2013-01-02 14:14:00,
2013-01-02 09:29:00,47.5,43.2,30.06,NNE,25,1.3,5.2,85,0.00,,BKN026,0.15,VWS V14.01,2013-01-02 14:29:00,
2013-01-02 09:44:00,49.1,44.5,30.05,East,100,0.0,6.5,84,0.00,,BKN026,0.15,VWS V14.01,2013-01-02 14:44:00,
2013-01-02 09:59:00,49.8,43.9,30.05,NNE,13,3.9,6.5,80,0.00,,BKN026,0.15,VWS V14.01,2013-01-02 14:59:00,
2013-01-02 10:14:00,49.2,43.3,30.08,NE,44,1.3,6.5,80,0.00,,OVC028,0.15,VWS V14.01,2013-01-02 15:14:00,
2013-01-02 10:29:00,49.2,43.3,30.07,NNW,342,1.3,6.5,80,0.00,,OVC028,0.15,VWS V14.01,2013-01-02 15:29:00,
2013-01-02 10:44:00,50.5,44.2,30.07,NE,39,0.0,7.8,79,0.00,,OVC028,0.15,VWS V14.01,2013-01-02 15:44:00,
2013-01-02 10:59:00,50.5,43.2,30.07,East,97,0.0,7.8,76,0.00,,OVC028,0.15,VWS V14.01,2013-01-02 15:59:00,
2013-01-02 11:14:00,50.4,43.5,30.07,NE,56,1.3,3.9,77,0.00,,OVC028,0.15,VWS V14.01,2013-01-02 16:14:00,
2013-01-02 11:28:00,50.8,43.5,30.08,NE,46,2.6,3.9,76,0.00,,OVC028,0.15,VWS V14.01,2013-01-02 16:28:00,
2013-01-02 11:44:00,50.9,43.6,30.05,North,10,0.0,3.9,76,0.00,,OVC028,0.15,VWS V14.01,2013-01-02 16:44:00,
2013-01-02 11:59:00,51.1,43.5,30.06,WNW,294,0.0,3.9,75,0.00,,OVC028,0.15,VWS V14.01,2013-01-02 16:59:00,
2013-01-02 12:14:00,51.2,43.2,30.06,NNE,23,0.0,2.6,74,0.00,,OVC028,0.15,VWS V14.01,2013-01-02 17:14:00,
2013-01-02 12:29:00,51.8,43.1,30.05,North,355,1.3,3.9,72,0.00,,OVC028,0.15,VWS V14.01,2013-01-02 17:29:00,
2013-01-02 12:44:00,52.0,44.3,30.04,ENE,57,3.9,3.9,75,0.00,,OVC028,0.15,VWS V14.01,2013-01-02 17:44:00,
2013-01-02 12:59:00,52.4,44.7,30.05,East,95,2.6,5.2,75,0.00,,OVC028,0.15,VWS V14.01,2013-01-02 17:59:00,
2013-01-02 13:14:00,52.7,44.3,30.04,SSW,211,0.0,3.9,73,0.00,,OVC036,0.15,VWS V14.01,2013-01-02 18:14:00,
2013-01-02 13:29:00,52.4,42.9,30.03,South,174,2.6,6.5,70,0.00,,OVC036,0.15,VWS V14.01,2013-01-02 18:29:00,
2013-01-02 13:44:00,52.2,42.7,30.03,East,94,2.6,6.5,70,0.00,,OVC036,0.15,VWS V14.01,2013-01-02 18:44:00,
2013-01-02 13:59:00,52.2,42.3,30.03,East,84,0.0,6.5,69,0.00,,OVC036,0.15,VWS V14.01,2013-01-02 18:59:00,
2013-01-02 14:14:00,52.3,42.5,30.04,East,88,0.0,2.6,69,0.00,,BKN040,0.15,VWS V14.01,2013-01-02 19:14:00,
2013-01-02 14:29:00,52.3,44.6,30.04,East,88,0.0,2.6,75,0.00,,BKN040,0.15,VWS V14.01,2013-01-02 19:29:00,
2013-01-02 14:43:00,52.3,42.8,30.03,East,88,2.6,2.6,70,0.00,,BKN040,0.15,VWS V14.01,2013-01-02 19:43:00,
2013-01-02 14:59:00,52.3,43.5,30.03,ENE,62,0.0,3.9,72,0.00,,BKN040,0.15,VWS V14.01,2013-01-02 19:59:00,
2013-01-02 15:14:00,52.3,43.9,30.03,ENE,62,0.0,2.6,73,0.00,,OVC038,0.15,VWS V14.01,2013-01-02 20:14:00,
2013-01-02 15:29:00,52.2,42.7,30.04,ENE,62,0.0,2.6,70,0.00,,OVC038,0.15,VWS V14.01,2013-01-02 20:29:00,
2013-01-02 15:44:00,52.0,43.3,30.05,ENE,62,1.3,2.6,72,0.00,,OVC038,0.15,VWS V14.01,2013-01-02 20:44:00,
2013-01-02 15:59:00,52.0,43.6,30.04,ENE,62,0.0,2.6,73,0.00,,OVC038,0.15,VWS V14.01,2013-01-02 20:59:00,
2013-01-02 16:14:00,51.5,43.5,30.04,ENE,62,0.0,1.3,74,0.00,,OVC036,0.15,VWS V14.01,2013-01-02 21:14:00,
2013-01-02 16:29:00,51.4,43.8,30.05,ENE,62,1.3,1.3,75,0.00,,OVC036,0.15,VWS V14.01,2013-01-02 21:29:00,
2013-01-02 16:43:00,51.0,43.7,30.06,ENE,62,0.0,1.3,76,0.00,,OVC036,0.15,VWS V14.01,2013-01-02 21:43:00,
2013-01-02 16:59:00,50.4,43.5,30.05,ENE,62,0.0,0.0,77,0.00,,OVC036,0.15,VWS V14.01,2013-01-02 21:59:00,
2013-01-02 17:14:00,49.7,43.5,30.05,ENE,62,0.0,1.3,79,0.00,,OVC040,0.15,VWS V14.01,2013-01-02 22:14:00,
2013-01-02 17:29:00,49.2,43.6,30.06,ENE,62,0.0,0.0,81,0.00,,OVC040,0.15,VWS V14.01,2013-01-02 22:29:00,
2013-01-02 17:44:00,48.3,43.1,30.07,ENE,62,0.0,1.3,82,0.00,,OVC040,0.15,VWS V14.01,2013-01-02 22:44:00,
2013-01-02 17:58:00,48.2,43.6,30.07,ENE,62,0.0,0.0,84,0.00,,OVC040,0.15,VWS V14.01,2013-01-02 22:58:00,
2013-01-02 18:13:00,48.2,43.0,30.07,ENE,62,0.0,2.6,82,0.00,,OVC034,0.15,VWS V14.01,2013-01-02 23:13:00,
2013-01-02 18:29:00,48.3,43.7,30.08,ENE,62,1.3,2.6,84,0.00,,OVC034,0.15,VWS V14.01,2013-01-02 23:29:00,
2013-01-02 18:44:00,49.1,44.8,30.08,ENE,77,0.0,6.5,85,0.00,,OVC034,0.15,VWS V14.01,2013-01-02 23:44:00,
2013-01-02 18:59:00,49.2,45.2,30.08,ESE,105,0.0,9.1,86,0.00,,BKN047,0.15,VWS V14.01,2013-01-02 23:59:00,
2013-01-02 19:14:00,49.1,45.1,30.10,ESE,105,1.3,3.9,86,0.00,,BKN024,0.15,VWS V14.01,2013-01-03 00:14:00,
2013-01-02 19:29:00,48.8,45.1,30.09,East,92,1.3,3.9,87,0.00,,OVC022,0.15,VWS V14.01,2013-01-03 00:29:00,
2013-01-02 19:44:00,48.6,44.9,30.11,ENE,69,3.9,6.5,87,0.00,,OVC022,0.15,VWS V14.01,2013-01-03 00:44:00,
2013-01-02 19:59:00,48.1,44.1,30.11,East,92,1.3,7.8,86,0.00,,OVC022,0.15,VWS V14.01,2013-01-03 00:59:00,
2013-01-02 20:14:00,47.8,43.8,30.11,East,96,3.9,9.1,86,0.00,,OVC012,0.15,VWS V14.01,2013-01-03 01:14:00,
2013-01-02 20:29:00,47.6,43.6,30.12,ESE,119,0.0,7.8,86,0.00,,OVC012,0.15,VWS V14.01,2013-01-03 01:29:00,
2013-01-02 20:44:00,47.5,43.5,30.11,East,88,1.3,6.5,86,0.00,,OVC012,0.15,VWS V14.01,2013-01-03 01:44:00,
2013-01-02 20:59:00,47.3,43.3,30.12,East,88,1.3,2.6,86,0.00,,OVC012,0.15,VWS V14.01,2013-01-03 01:59:00,
2013-01-02 21:14:00,47.3,43.3,30.14,East,92,0.0,6.5,86,0.00,,OVC012,0.15,VWS V14.01,2013-01-03 02:14:00,
2013-01-02 21:28:00,47.2,43.2,30.13,East,98,0.0,7.8,86,0.00,,OVC012,0.15,VWS V14.01,2013-01-03 02:28:00,
2013-01-02 21:44:00,47.1,43.1,30.14,East,88,2.6,9.1,86,0.00,,OVC012,0.15,VWS V14.01,2013-01-03 02:44:00,
2013-01-02 21:58:00,47.1,43.1,30.14,East,99,1.3,7.8,86,0.00,,OVC012,0.15,VWS V14.01,2013-01-03 02:58:00,
2013-01-02 22:14:00,46.9,42.9,30.14,SE,140,2.6,9.1,86,0.00,,OVC012,0.15,VWS V14.01,2013-01-03 03:14:00,
2013-01-02 22:29:00,46.7,42.7,30.14,ENE,59,3.9,7.8,86,0.00,,OVC012,0.15,VWS V14.01,2013-01-03 03:29:00,
2013-01-02 22:59:00,46.4,42.5,30.14,East,81,2.6,7.8,86,0.00,,OVC012,0.15,VWS V14.01,2013-01-03 03:59:00,
2013-01-02 23:14:00,46.2,42.5,30.14,East,87,3.9,6.5,87,0.00,,-RA,0.15,VWS V14.01,2013-01-03 04:14:00,
2013-01-02 23:29:00,46.1,42.5,30.13,East,99,1.3,7.8,87,0.00,,-RA,0.15,VWS V14.01,2013-01-03 04:29:00,
2013-01-02 23:44:00,45.9,42.3,30.13,ENE,68,3.9,9.1,87,0.00,,-RA,0.15,VWS V14.01,2013-01-03 04:44:00,
2013-01-02 23:59:00,45.6,42.3,30.12,East,94,2.6,9.1,88,0.00,,-RA,0.15,VWS V14.01,2013-01-03 04:59:00,